createdAt,value
2018-07-27T00:03:10.698Z,90
2018-07-27T00:04:10.459Z,90
2018-07-27T00:05:10.688Z,91
2018-07-27T00:07:10.767Z,91
2018-07-27T00:09:11.892Z,91
2018-07-27T00:10:10.556Z,91
2018-07-27T00:11:10.692Z,91
2018-07-27T00:13:11.639Z,91
2018-07-27T00:14:10.695Z,91
2018-07-27T00:15:10.849Z,91
2018-07-27T00:16:10.692Z,91
2018-07-27T00:17:11.429Z,91
2018-07-27T00:21:11.456Z,92
2018-07-27T00:23:28.381Z,92
2018-07-27T00:26:10.513Z,92
2018-07-27T00:29:10.568Z,92
2018-07-27T00:30:11.314Z,92
2018-07-27T00:31:10.794Z,92
2018-07-27T00:32:11.412Z,92
2018-07-27T00:33:11.554Z,92
2018-07-27T00:37:11.198Z,92
2018-07-27T00:38:10.744Z,92
2018-07-27T00:39:10.789Z,92
2018-07-27T00:40:10.546Z,92
2018-07-27T00:41:11.406Z,91
2018-07-27T00:43:11.366Z,91
2018-07-27T00:44:11.130Z,91
2018-07-27T00:45:12.054Z,91
2018-07-27T00:46:10.753Z,92
2018-07-27T00:48:10.761Z,92
2018-07-27T00:50:11.371Z,91
2018-07-27T00:51:11.315Z,91
2018-07-27T00:52:10.808Z,91
2018-07-27T00:53:10.929Z,91
2018-07-27T00:54:10.761Z,91
2018-07-27T00:55:10.789Z,91
2018-07-27T00:56:10.775Z,92
2018-07-27T00:57:11.488Z,92
2018-07-27T01:00:11.457Z,92
2018-07-27T01:03:10.826Z,92
2018-07-27T01:05:11.527Z,92
2018-07-27T01:07:11.486Z,92
2018-07-27T01:08:11.276Z,92
2018-07-27T01:10:10.920Z,92
2018-07-27T01:11:11.902Z,92
2018-07-27T01:12:12.090Z,92
2018-07-27T01:14:11.474Z,92
2018-07-27T01:15:11.532Z,92
2018-07-27T01:16:10.613Z,92
2018-07-27T01:17:12.170Z,92
2018-07-27T01:20:11.296Z,92
2018-07-27T01:21:10.959Z,92
2018-07-27T01:22:11.230Z,93
2018-07-27T01:25:10.685Z,93
2018-07-27T01:27:13.040Z,93
2018-07-27T01:28:11.688Z,93
2018-07-27T01:29:12.017Z,93
2018-07-27T01:30:10.866Z,93
2018-07-27T01:32:10.927Z,93
2018-07-27T01:33:10.842Z,93
2018-07-27T01:34:10.899Z,93
2018-07-27T01:35:10.868Z,93
2018-07-27T01:37:10.941Z,93
2018-07-27T01:38:13.664Z,93
2018-07-27T01:42:29.666Z,93
2018-07-27T01:42:45.085Z,93
2018-07-27T01:44:45.379Z,93
2018-07-27T01:45:45.388Z,93
2018-07-27T01:46:45.403Z,93
2018-07-27T01:47:45.401Z,93
2018-07-27T01:48:46.224Z,93
2018-07-27T01:49:45.204Z,93
2018-07-27T01:51:45.241Z,93
2018-07-27T01:52:45.058Z,93
2018-07-27T01:53:45.054Z,93
2018-07-27T01:54:45.337Z,93
2018-07-27T01:55:45.114Z,93
2018-07-27T01:56:45.091Z,93
2018-07-27T01:57:45.338Z,93
2018-07-27T02:00:26.559Z,93
2018-07-27T02:00:36.929Z,93
2018-07-27T02:01:37.017Z,93
2018-07-27T02:02:36.846Z,93
2018-07-27T02:03:36.869Z,93
2018-07-27T02:04:36.889Z,93
2018-07-27T02:05:36.921Z,93
2018-07-27T02:06:36.921Z,93
2018-07-27T02:08:37.583Z,92
2018-07-27T02:10:50.226Z,92
2018-07-27T02:11:50.277Z,92
2018-07-27T02:12:50.090Z,92
2018-07-27T02:13:50.314Z,92
2018-07-27T02:15:50.370Z,92
2018-07-27T02:16:50.340Z,92
2018-07-27T02:17:50.442Z,92
2018-07-27T02:18:51.144Z,92
2018-07-27T02:19:50.181Z,92
2018-07-27T02:21:18.484Z,92
2018-07-27T02:21:50.470Z,92
2018-07-27T02:22:50.951Z,92
2018-07-27T02:24:50.137Z,92
2018-07-27T02:25:50.245Z,92
2018-07-27T02:26:50.484Z,92
2018-07-27T02:27:50.924Z,92
2018-07-27T02:28:50.441Z,92
2018-07-27T02:29:50.179Z,92
2018-07-27T02:30:50.442Z,92
2018-07-27T02:32:50.439Z,93
2018-07-27T02:33:50.490Z,93
2018-07-27T02:34:50.622Z,93
2018-07-27T02:35:50.545Z,93
2018-07-27T02:36:50.325Z,93
2018-07-27T02:37:50.405Z,93
2018-07-27T02:38:50.230Z,93
2018-07-27T02:39:51.022Z,93
2018-07-27T02:40:50.307Z,93
2018-07-27T02:41:50.436Z,93
2018-07-27T02:42:50.484Z,93
2018-07-27T02:43:50.480Z,93
2018-07-27T02:44:50.463Z,93
2018-07-27T02:45:50.496Z,93
2018-07-27T02:46:50.550Z,93
2018-07-27T02:47:50.444Z,93
2018-07-27T02:48:50.504Z,93
2018-07-27T02:51:50.475Z,93
2018-07-27T02:52:50.213Z,93
2018-07-27T02:53:50.298Z,93
2018-07-27T02:54:50.257Z,93
2018-07-27T02:55:50.270Z,93
2018-07-27T02:56:50.887Z,93
2018-07-27T02:57:50.345Z,93
2018-07-27T02:58:50.175Z,93
2018-07-27T02:59:50.285Z,93
2018-07-27T03:01:50.508Z,93
2018-07-27T03:02:51.606Z,93
2018-07-27T03:03:50.065Z,93
2018-07-27T03:04:50.425Z,93
2018-07-27T03:05:50.225Z,93
2018-07-27T03:06:50.293Z,93
2018-07-27T03:07:50.972Z,93
2018-07-27T03:08:50.369Z,93
2018-07-27T03:09:50.998Z,93
2018-07-27T03:10:50.530Z,93
2018-07-27T03:11:50.530Z,93
2018-07-27T03:12:50.289Z,93
2018-07-27T03:14:50.443Z,93
2018-07-27T03:15:51.548Z,93
2018-07-27T03:16:50.128Z,93
2018-07-27T03:26:00.746Z,93
2018-07-27T03:27:11.191Z,93
2018-07-27T03:28:11.255Z,93
2018-07-27T03:29:11.099Z,93
2018-07-27T03:31:11.033Z,93
2018-07-27T03:33:11.598Z,93
2018-07-27T03:34:11.002Z,93
2018-07-27T03:35:12.823Z,93
2018-07-27T03:36:11.189Z,93
2018-07-27T03:37:11.283Z,93
2018-07-27T03:40:11.190Z,93
2018-07-27T03:41:11.025Z,94
2018-07-27T03:42:11.339Z,94
2018-07-27T03:45:11.690Z,94
2018-07-27T03:46:11.864Z,94
2018-07-27T03:48:11.142Z,94
2018-07-27T03:49:11.194Z,94
2018-07-27T03:51:10.981Z,94
2018-07-27T03:52:11.323Z,94
2018-07-27T03:53:11.219Z,94
2018-07-27T03:54:11.332Z,94
2018-07-27T03:55:11.734Z,94
2018-07-27T03:57:11.143Z,94
2018-07-27T03:58:11.165Z,94
2018-07-27T03:59:11.150Z,94
2018-07-27T04:00:11.231Z,94
2018-07-27T04:01:11.249Z,94
2018-07-27T04:03:11.243Z,94
2018-07-27T04:04:11.269Z,94
2018-07-27T04:05:11.237Z,94
2018-07-27T04:08:11.023Z,94
2018-07-27T04:11:11.369Z,94
2018-07-27T04:15:11.052Z,95
2018-07-27T04:16:11.243Z,95
2018-07-27T04:17:11.296Z,95
2018-07-27T04:18:11.328Z,95
2018-07-27T04:19:11.175Z,95
2018-07-27T04:20:11.283Z,95
2018-07-27T04:22:11.389Z,95
2018-07-27T04:24:11.295Z,95
2018-07-27T04:26:11.819Z,95
2018-07-27T04:27:11.314Z,95
2018-07-27T04:29:11.303Z,95
2018-07-27T04:30:11.078Z,95
2018-07-27T04:31:11.239Z,95
2018-07-27T04:33:11.776Z,95
2018-07-27T04:34:11.960Z,95
2018-07-27T04:35:11.752Z,95
2018-07-27T04:36:11.065Z,95
2018-07-27T04:38:11.338Z,95
2018-07-27T04:39:11.364Z,95
2018-07-27T04:41:11.303Z,95
2018-07-27T04:42:11.401Z,95
2018-07-27T04:43:11.384Z,95
2018-07-27T04:44:11.390Z,95
2018-07-27T04:45:12.202Z,95
2018-07-27T04:46:11.358Z,95
2018-07-27T04:47:11.505Z,95
2018-07-27T04:48:11.353Z,95
2018-07-27T04:49:13.428Z,95
2018-07-27T04:50:11.863Z,95
2018-07-27T04:51:11.315Z,95
2018-07-27T04:53:10.987Z,94
2018-07-27T04:55:11.307Z,94
2018-07-27T04:56:11.324Z,94
2018-07-27T04:57:11.227Z,94
2018-07-27T04:59:11.309Z,95
2018-07-27T05:00:11.283Z,95
2018-07-27T05:01:11.402Z,95
2018-07-27T05:02:11.374Z,95
2018-07-27T05:04:11.195Z,94
2018-07-27T05:05:11.280Z,94
2018-07-27T05:06:11.942Z,94
2018-07-27T05:08:11.220Z,94
2018-07-27T05:09:11.332Z,94
2018-07-27T05:11:11.301Z,93
2018-07-27T05:12:11.304Z,93
2018-07-27T05:13:11.360Z,92
2018-07-27T05:15:11.124Z,92
2018-07-27T05:18:12.444Z,91
2018-07-27T05:20:11.922Z,91
2018-07-27T05:21:11.431Z,91
2018-07-27T05:22:11.411Z,91
2018-07-27T05:23:11.964Z,91
2018-07-27T05:26:11.105Z,89
2018-07-27T05:27:11.990Z,89
2018-07-27T05:28:11.336Z,89
2018-07-27T05:31:12.317Z,89
2018-07-27T05:32:11.352Z,89
2018-07-27T05:33:11.320Z,89
2018-07-27T05:34:11.310Z,89
2018-07-27T05:35:12.681Z,89
2018-07-27T05:36:47.454Z,89
2018-07-27T05:37:11.344Z,89
2018-07-27T05:38:11.455Z,89
2018-07-27T05:39:11.531Z,89
2018-07-27T05:41:11.338Z,90
2018-07-27T05:43:11.524Z,90
2018-07-27T05:45:11.354Z,90
2018-07-27T05:46:11.430Z,90
2018-07-27T05:48:24.764Z,90
2018-07-27T05:49:24.697Z,90
2018-07-27T05:51:25.171Z,89
2018-07-27T05:52:24.728Z,89
2018-07-27T05:53:24.582Z,89
2018-07-27T05:54:25.748Z,89
2018-07-27T05:55:25.403Z,89
2018-07-27T05:56:24.685Z,88
2018-07-27T05:58:24.927Z,87
2018-07-27T05:59:25.605Z,87
2018-07-27T06:00:25.312Z,87
2018-07-27T06:01:24.694Z,85
2018-07-27T06:02:24.765Z,85
2018-07-27T06:03:24.727Z,85
2018-07-27T06:04:24.856Z,85
2018-07-27T06:05:24.554Z,85
2018-07-27T06:06:25.383Z,81
2018-07-27T06:08:01.154Z,81
2018-07-27T06:08:24.530Z,81
2018-07-27T06:09:24.766Z,80
2018-07-27T06:10:24.519Z,80
2018-07-27T06:12:25.442Z,79
2018-07-27T06:13:24.855Z,79
2018-07-27T06:14:24.760Z,78
2018-07-27T06:15:26.656Z,78
2018-07-27T06:16:24.647Z,77
2018-07-27T06:17:24.780Z,77
2018-07-27T06:19:37.674Z,73
2018-07-27T06:20:37.665Z,73
2018-07-27T06:22:37.597Z,71
2018-07-27T06:23:38.219Z,71
2018-07-27T06:24:37.468Z,70
2018-07-27T06:25:38.357Z,70
2018-07-27T06:27:37.712Z,69
2018-07-27T06:29:37.774Z,69
2018-07-27T06:30:37.671Z,69
2018-07-27T06:31:37.644Z,68
2018-07-27T06:32:37.480Z,68
2018-07-27T06:33:37.769Z,68
2018-07-27T06:34:37.744Z,68
2018-07-27T06:35:38.120Z,68
2018-07-27T06:37:37.702Z,67
2018-07-27T06:38:38.297Z,67
2018-07-27T06:39:38.947Z,67
2018-07-27T06:40:37.675Z,67
2018-07-27T06:41:39.051Z,66
2018-07-27T06:42:37.812Z,66
2018-07-27T06:43:37.780Z,66
2018-07-27T06:44:37.738Z,66
2018-07-27T06:45:37.789Z,66
2018-07-27T06:46:37.789Z,66
2018-07-27T06:47:37.766Z,65
2018-07-27T06:48:57.810Z,65
2018-07-27T06:49:38.327Z,64
2018-07-27T06:50:37.698Z,64
2018-07-27T06:51:37.747Z,64
2018-07-27T06:52:37.737Z,65
2018-07-27T06:53:37.755Z,65
2018-07-27T06:54:37.640Z,64
2018-07-27T06:57:37.766Z,66
2018-07-27T06:58:42.787Z,66
2018-07-27T06:59:38.249Z,64
2018-07-27T07:01:38.347Z,64
2018-07-27T07:02:38.289Z,64
2018-07-27T07:03:37.754Z,64
2018-07-27T07:04:37.729Z,65
2018-07-27T07:05:37.742Z,65
2018-07-27T07:06:37.782Z,65
2018-07-27T07:07:37.783Z,62
2018-07-27T07:08:38.808Z,62
2018-07-27T07:10:50.082Z,62
2018-07-27T07:11:50.199Z,62
2018-07-27T07:13:50.395Z,62
2018-07-27T07:14:50.132Z,62
2018-07-27T07:15:50.826Z,62
2018-07-27T07:16:50.716Z,62
2018-07-27T07:17:50.216Z,61
2018-07-27T07:18:50.286Z,61
2018-07-27T07:21:00.506Z,62
2018-07-27T07:21:50.160Z,62
2018-07-27T07:22:50.000Z,62
2018-07-27T07:23:50.182Z,62
2018-07-27T07:25:51.598Z,62
2018-07-27T07:26:50.331Z,62
2018-07-27T07:27:50.236Z,62
2018-07-27T07:28:50.264Z,62
2018-07-27T07:29:50.169Z,62
2018-07-27T07:32:31.095Z,62
2018-07-27T07:32:42.416Z,62
2018-07-27T07:33:42.471Z,61
2018-07-27T07:35:42.496Z,60
2018-07-27T07:36:43.629Z,60
2018-07-27T07:37:42.471Z,59
2018-07-27T07:38:42.522Z,59
2018-07-27T07:39:42.454Z,59
2018-07-27T07:40:42.516Z,60
2018-07-27T07:41:43.734Z,60
2018-07-27T07:42:42.459Z,59
2018-07-27T07:43:42.468Z,59
2018-07-27T07:44:42.255Z,59
2018-07-27T07:45:42.334Z,60
2018-07-27T07:46:42.519Z,60
2018-07-27T07:47:42.534Z,58
2018-07-27T07:48:43.818Z,58
2018-07-27T07:49:43.945Z,58
2018-07-27T07:50:42.451Z,59
2018-07-27T07:51:44.398Z,59
2018-07-27T07:52:42.308Z,59
2018-07-27T07:53:42.529Z,58
2018-07-27T07:54:42.534Z,58
2018-07-27T07:55:42.481Z,59
2018-07-27T07:56:42.555Z,59
2018-07-27T07:57:42.438Z,59
2018-07-27T07:58:42.578Z,58
2018-07-27T07:59:42.588Z,58
2018-07-27T08:06:29.302Z,58
2018-07-27T08:07:28.819Z,58
2018-07-27T08:08:28.618Z,58
2018-07-27T08:09:28.784Z,58
2018-07-27T08:10:28.713Z,58
2018-07-27T08:11:28.586Z,60
2018-07-27T08:12:28.778Z,60
2018-07-27T08:13:32.619Z,59
2018-07-27T08:14:28.905Z,59
2018-07-27T08:15:28.852Z,59
2018-07-27T08:16:28.741Z,60
2018-07-27T08:17:28.769Z,60
2018-07-27T08:18:28.789Z,58
2018-07-27T08:20:28.781Z,58
2018-07-27T08:21:29.448Z,57
2018-07-27T08:22:28.852Z,57
2018-07-27T08:24:28.535Z,56
2018-07-27T08:27:28.740Z,57
2018-07-27T08:28:29.587Z,54
2018-07-27T08:29:28.729Z,54
2018-07-27T08:31:28.791Z,55
2018-07-27T08:32:30.711Z,55
2018-07-27T08:33:28.733Z,55
2018-07-27T08:34:28.764Z,55
2018-07-27T08:35:28.810Z,55
2018-07-27T08:36:28.849Z,56
2018-07-27T08:37:28.689Z,56
2018-07-27T08:38:28.803Z,56
2018-07-27T08:40:28.784Z,54
2018-07-27T08:41:30.146Z,53
2018-07-27T08:43:28.843Z,53
2018-07-27T08:45:28.690Z,54
2018-07-27T08:46:29.795Z,54
2018-07-27T08:47:28.904Z,54
2018-07-27T08:48:28.834Z,54
2018-07-27T08:49:28.640Z,54
2018-07-27T08:50:28.645Z,54
2018-07-27T08:52:28.826Z,54
2018-07-27T08:53:28.778Z,54
2018-07-27T08:54:28.755Z,53
2018-07-27T08:55:29.548Z,53
2018-07-27T08:57:28.775Z,52
2018-07-27T08:58:28.880Z,52
2018-07-27T08:59:28.751Z,53
2018-07-27T09:02:35.299Z,53
2018-07-27T09:03:35.679Z,52
2018-07-27T09:04:35.279Z,54
2018-07-27T09:05:35.076Z,54
2018-07-27T09:06:35.759Z,50
2018-07-27T09:07:35.064Z,50
2018-07-27T09:09:35.884Z,51
2018-07-27T09:10:35.782Z,51
2018-07-27T09:11:35.606Z,51
2018-07-27T09:12:35.207Z,51
2018-07-27T09:13:35.155Z,51
2018-07-27T09:14:36.585Z,51
2018-07-27T09:15:36.539Z,51
2018-07-27T09:16:35.263Z,51
2018-07-27T09:17:35.310Z,49
2018-07-27T09:18:35.387Z,49
2018-07-27T09:19:35.153Z,47
2018-07-27T09:20:35.324Z,47
2018-07-27T09:21:35.388Z,47
2018-07-27T09:22:35.251Z,50
2018-07-27T09:24:35.449Z,48
2018-07-27T09:25:35.249Z,48
2018-07-27T09:26:35.914Z,48
2018-07-27T09:27:35.245Z,48
2018-07-27T09:28:36.019Z,48
2018-07-27T09:29:35.100Z,49
2018-07-27T09:30:35.298Z,49
2018-07-27T09:31:45.288Z,49
2018-07-27T09:32:35.279Z,47
2018-07-27T09:33:35.276Z,47
2018-07-27T09:34:35.363Z,47
2018-07-27T09:35:35.427Z,47
2018-07-27T09:36:35.303Z,47
2018-07-27T09:38:35.236Z,49
2018-07-27T09:39:35.289Z,47
2018-07-27T09:41:35.310Z,47
2018-07-27T09:42:36.003Z,50
2018-07-27T09:43:38.132Z,50
2018-07-27T09:44:35.253Z,50
2018-07-27T09:45:35.770Z,48
2018-07-27T09:46:35.474Z,48
2018-07-27T09:47:35.944Z,46
2018-07-27T09:48:35.359Z,46
2018-07-27T09:49:45.391Z,46
2018-07-27T09:50:35.363Z,46
2018-07-27T09:51:35.411Z,46
2018-07-27T09:52:35.278Z,47
2018-07-27T09:53:35.375Z,47
2018-07-27T09:54:35.321Z,47
2018-07-27T09:55:35.307Z,45
2018-07-27T09:56:35.101Z,45
2018-07-27T09:57:35.209Z,44
2018-07-27T09:59:35.358Z,44
2018-07-27T10:00:35.407Z,47
2018-07-27T10:01:35.336Z,47
2018-07-27T10:02:36.367Z,46
2018-07-27T10:03:35.343Z,46
2018-07-27T10:04:35.312Z,46
2018-07-27T10:06:35.910Z,48
2018-07-27T10:08:03.680Z,48
2018-07-27T10:10:35.288Z,46
2018-07-27T10:11:35.153Z,46
2018-07-27T10:14:35.934Z,46
2018-07-27T10:15:35.398Z,46
2018-07-27T10:16:35.190Z,46
2018-07-27T10:17:35.345Z,46
2018-07-27T10:21:47.983Z,45
2018-07-27T10:23:48.259Z,44
2018-07-27T10:26:48.213Z,44
2018-07-27T10:27:48.840Z,44
2018-07-27T10:28:48.237Z,44
2018-07-27T10:30:47.962Z,43
2018-07-27T10:31:48.103Z,43
2018-07-27T10:32:48.331Z,43
2018-07-27T10:33:48.261Z,44
2018-07-27T10:34:48.307Z,44
2018-07-27T10:35:48.872Z,44
2018-07-27T10:36:48.247Z,44
2018-07-27T10:37:48.303Z,44
2018-07-27T10:38:48.226Z,44
2018-07-27T10:39:52.330Z,44
2018-07-27T10:40:48.264Z,45
2018-07-27T10:41:48.249Z,45
2018-07-27T10:42:48.240Z,45
2018-07-27T10:43:48.343Z,45
2018-07-27T10:45:48.320Z,44
2018-07-27T10:46:48.008Z,44
2018-07-27T10:47:48.861Z,44
2018-07-27T10:48:48.209Z,44
2018-07-27T10:50:04.339Z,44
2018-07-27T10:51:48.182Z,45
2018-07-27T10:52:48.026Z,45
2018-07-27T10:53:48.045Z,45
2018-07-27T10:55:48.009Z,46
2018-07-27T10:56:48.196Z,46
2018-07-27T10:57:48.288Z,46
2018-07-27T10:58:48.383Z,47
2018-07-27T10:59:48.832Z,47
2018-07-27T11:00:48.109Z,47
2018-07-27T11:01:48.049Z,48
2018-07-27T11:02:48.205Z,48
2018-07-27T11:03:48.053Z,47
2018-07-27T11:05:48.265Z,47
2018-07-27T11:06:48.240Z,44
2018-07-27T11:07:48.322Z,44
2018-07-27T11:08:49.026Z,44
2018-07-27T11:10:12.211Z,44
2018-07-27T11:10:48.096Z,44
2018-07-27T11:11:48.134Z,43
2018-07-27T11:12:48.269Z,43
2018-07-27T11:13:48.177Z,44
2018-07-27T11:14:48.254Z,44
2018-07-27T11:15:48.249Z,44
2018-07-27T11:16:48.465Z,44
2018-07-27T11:17:49.086Z,44
2018-07-27T11:18:48.276Z,45
2018-07-27T11:20:49.130Z,45
2018-07-27T11:21:48.969Z,43
2018-07-27T11:22:48.107Z,43
2018-07-27T11:23:48.307Z,42
2018-07-27T11:25:48.333Z,42
2018-07-27T11:26:48.306Z,42
2018-07-27T11:27:48.312Z,42
2018-07-27T11:28:48.294Z,42
2018-07-27T11:30:48.302Z,42
2018-07-27T11:31:48.089Z,42
2018-07-27T11:32:48.311Z,42
2018-07-27T11:33:48.069Z,42
2018-07-27T11:34:48.310Z,43
2018-07-27T11:35:48.070Z,43
2018-07-27T11:36:48.304Z,42
2018-07-27T11:37:48.342Z,42
2018-07-27T11:38:48.685Z,42
2018-07-27T11:40:48.363Z,41
2018-07-27T11:41:48.330Z,39
2018-07-27T11:42:48.330Z,39
2018-07-27T11:43:48.477Z,39
2018-07-27T11:44:48.359Z,38
2018-07-27T11:45:48.068Z,38
2018-07-27T11:46:48.344Z,41
2018-07-27T11:47:48.415Z,41
2018-07-27T11:48:49.651Z,41
2018-07-27T11:50:48.333Z,38
2018-07-27T11:51:48.325Z,38
2018-07-27T11:52:48.278Z,38
2018-07-27T11:53:48.387Z,38
2018-07-27T11:55:48.371Z,38
2018-07-27T11:56:48.326Z,41
2018-07-27T11:57:48.312Z,41
2018-07-27T12:13:04.887Z,45
2018-07-27T12:15:05.177Z,43
2018-07-27T12:16:04.891Z,43
2018-07-27T12:17:05.500Z,43
2018-07-27T12:18:04.769Z,42
2018-07-27T12:19:04.919Z,42
2018-07-27T12:20:04.885Z,42
2018-07-27T12:21:04.770Z,42
2018-07-27T12:22:04.934Z,42
2018-07-27T12:23:05.333Z,42
2018-07-27T12:24:06.230Z,42
2018-07-27T12:28:04.884Z,40
2018-07-27T12:29:05.011Z,40
2018-07-27T12:30:04.901Z,42
2018-07-27T12:31:04.953Z,42
2018-07-27T12:32:04.765Z,42
2018-07-27T12:33:04.677Z,42
2018-07-27T12:34:04.893Z,42
2018-07-27T12:35:04.755Z,42
2018-07-27T12:36:04.756Z,42
2018-07-27T12:37:04.983Z,42
2018-07-27T12:38:04.998Z,40
2018-07-27T12:39:04.928Z,40
2018-07-27T12:40:04.759Z,40
2018-07-27T12:41:21.068Z,40
2018-07-27T12:44:04.788Z,41
2018-07-27T12:45:05.083Z,39
2018-07-27T12:46:04.920Z,39
2018-07-27T12:47:04.973Z,39
2018-07-27T12:48:04.916Z,38
2018-07-27T12:49:04.801Z,38
2018-07-27T12:50:04.829Z,38
2018-07-27T12:51:07.140Z,38
2018-07-27T12:52:05.126Z,38
2018-07-27T12:53:05.014Z,38
2018-07-27T12:54:05.159Z,38
2018-07-27T12:55:04.825Z,38
2018-07-27T12:56:05.081Z,41
2018-07-27T12:58:05.986Z,37
2018-07-27T12:59:05.181Z,37
2018-07-27T13:00:06.124Z,37
2018-07-27T13:01:06.343Z,40
2018-07-27T13:02:04.902Z,40
2018-07-27T13:03:05.066Z,38
2018-07-27T13:04:06.211Z,38
2018-07-27T13:06:05.071Z,38
2018-07-27T13:08:05.061Z,38
2018-07-27T13:09:05.455Z,38
2018-07-27T13:10:05.187Z,38
2018-07-27T13:11:57.593Z,39
2018-07-27T13:12:07.103Z,39
2018-07-27T13:13:06.837Z,43
2018-07-27T13:14:06.964Z,43
2018-07-27T13:16:06.855Z,42
2018-07-27T13:17:06.964Z,42
2018-07-27T13:18:07.004Z,42
2018-07-27T13:19:07.657Z,42
2018-07-27T13:20:09.115Z,42
2018-07-27T13:23:20.659Z,41
2018-07-27T13:24:19.418Z,41
2018-07-27T13:25:19.447Z,41
2018-07-27T13:26:29.690Z,37
2018-07-27T13:27:19.184Z,37
2018-07-27T13:28:19.139Z,38
2018-07-27T13:29:20.267Z,38
2018-07-27T13:30:19.301Z,38
2018-07-27T13:31:19.743Z,38
2018-07-27T13:32:19.135Z,38
2018-07-27T13:33:19.163Z,38
2018-07-27T13:34:19.220Z,35
2018-07-27T13:36:20.339Z,37
2018-07-27T13:37:19.377Z,37
2018-07-27T13:38:19.131Z,37
2018-07-27T13:39:19.115Z,38
2018-07-27T13:40:20.654Z,38
2018-07-27T13:42:19.427Z,37
2018-07-27T13:44:20.759Z,36
2018-07-27T13:45:19.780Z,36
2018-07-27T13:46:19.942Z,38
2018-07-27T13:47:19.517Z,38
2018-07-27T13:48:19.543Z,38
2018-07-27T13:50:19.980Z,39
2018-07-27T13:51:20.170Z,37
2018-07-27T13:52:19.497Z,37
2018-07-27T13:54:19.420Z,37
2018-07-27T13:56:19.958Z,40
2018-07-27T13:57:19.300Z,40
2018-07-27T13:58:20.054Z,40
2018-07-27T13:59:19.249Z,39
2018-07-27T14:00:19.888Z,39
2018-07-27T14:01:47.673Z,41
2018-07-27T14:02:19.313Z,41
2018-07-27T14:03:19.373Z,41
2018-07-27T14:04:19.781Z,40
2018-07-27T14:05:19.408Z,40
2018-07-27T14:06:19.365Z,40
2018-07-27T14:07:20.350Z,38
2018-07-27T14:08:19.402Z,38
2018-07-27T14:12:22.723Z,39
2018-07-27T14:13:20.032Z,39
2018-07-27T14:14:21.337Z,41
2018-07-27T14:15:19.431Z,41
2018-07-27T14:16:19.262Z,41
2018-07-27T14:18:19.329Z,40
2018-07-27T14:19:19.397Z,43
2018-07-27T14:20:19.429Z,43
2018-07-27T14:21:19.408Z,43
2018-07-27T14:22:19.377Z,44
2018-07-27T14:23:19.434Z,44
2018-07-27T14:24:19.370Z,45
2018-07-27T14:25:19.376Z,45
2018-07-27T14:26:19.449Z,45
2018-07-27T14:27:19.953Z,46
2018-07-27T14:28:19.346Z,46
2018-07-27T14:29:19.385Z,48
2018-07-27T14:30:19.481Z,48
2018-07-27T14:31:19.503Z,48
2018-07-27T14:32:19.448Z,45
2018-07-27T14:33:19.467Z,45
2018-07-27T14:34:19.508Z,45
2018-07-27T14:35:19.472Z,47
2018-07-27T14:36:19.155Z,47
2018-07-27T14:40:20.154Z,48
2018-07-27T14:41:19.420Z,48
2018-07-27T14:42:20.752Z,47
2018-07-27T14:43:19.284Z,47
2018-07-27T14:44:19.666Z,47
2018-07-27T14:45:20.033Z,46
2018-07-27T14:47:20.386Z,46
2018-07-27T14:48:20.208Z,46
2018-07-27T14:49:19.527Z,46
2018-07-27T14:50:19.506Z,48
2018-07-27T14:51:19.336Z,48
2018-07-27T14:52:19.644Z,48
2018-07-27T14:53:19.608Z,48
2018-07-27T14:54:19.712Z,48
2018-07-27T14:55:19.911Z,47
2018-07-27T14:56:19.410Z,47
2018-07-27T15:08:11.928Z,47
2018-07-27T15:09:12.198Z,46
2018-07-27T15:10:12.356Z,46
2018-07-27T15:11:11.922Z,46
2018-07-27T15:12:13.097Z,46
2018-07-27T15:13:13.101Z,46
2018-07-27T15:15:12.837Z,45
2018-07-27T15:16:12.218Z,45
2018-07-27T15:17:12.960Z,45
2018-07-27T15:18:13.308Z,46
2018-07-27T15:19:12.195Z,46
2018-07-27T15:20:12.630Z,45
2018-07-27T15:23:12.089Z,47
2018-07-27T15:24:12.482Z,47
2018-07-27T15:25:12.639Z,47
2018-07-27T15:26:12.192Z,47
2018-07-27T15:28:12.796Z,48
2018-07-27T15:29:12.131Z,48
2018-07-27T15:31:11.885Z,48
2018-07-27T15:32:12.156Z,48
2018-07-27T15:33:12.685Z,48
2018-07-27T15:34:12.111Z,48
2018-07-27T15:35:12.304Z,48
2018-07-27T15:37:12.918Z,47
2018-07-27T15:38:12.013Z,45
2018-07-27T15:39:12.262Z,45
2018-07-27T15:43:38.352Z,46
2018-07-27T15:44:37.653Z,46
2018-07-27T15:45:37.512Z,47
2018-07-27T15:46:37.403Z,47
2018-07-27T15:47:37.337Z,47
2018-07-27T15:48:36.988Z,47
2018-07-27T15:49:37.146Z,47
2018-07-27T15:50:37.290Z,47
2018-07-27T15:51:37.134Z,47
2018-07-27T15:52:37.984Z,47
2018-07-27T15:53:37.045Z,47
2018-07-27T15:54:37.354Z,47
2018-07-27T15:55:37.292Z,47
2018-07-27T15:56:36.947Z,47
2018-07-27T15:57:37.328Z,47
2018-07-27T15:58:37.681Z,47
2018-07-27T15:59:37.368Z,47
2018-07-27T16:00:37.472Z,47
2018-07-27T16:01:37.335Z,48
2018-07-27T16:02:37.374Z,48
2018-07-27T16:03:37.001Z,47
2018-07-27T16:04:37.376Z,47
2018-07-27T16:05:37.142Z,47
2018-07-27T16:08:37.035Z,48
2018-07-27T16:09:37.328Z,48
2018-07-27T16:10:37.117Z,48
2018-07-27T16:13:37.421Z,48
2018-07-27T16:14:37.144Z,48
2018-07-27T16:17:37.339Z,50
2018-07-27T16:18:37.290Z,50
2018-07-27T16:19:37.304Z,50
2018-07-27T16:20:37.137Z,50
2018-07-27T16:21:36.940Z,51
2018-07-27T16:22:36.967Z,51
2018-07-27T16:23:37.155Z,51
2018-07-27T16:24:37.414Z,51
2018-07-27T16:25:37.237Z,51
2018-07-27T16:26:37.251Z,50
2018-07-27T16:27:37.077Z,50
2018-07-27T16:29:37.664Z,50
2018-07-27T16:30:37.572Z,50
2018-07-27T16:32:37.399Z,50
2018-07-27T16:33:37.053Z,50
2018-07-27T16:34:37.503Z,49
2018-07-27T16:35:37.509Z,49
2018-07-27T16:36:37.202Z,49
2018-07-27T16:37:37.358Z,49
2018-07-27T16:38:37.269Z,49
2018-07-27T16:39:37.479Z,48
2018-07-27T16:40:37.061Z,48
2018-07-27T16:41:37.010Z,48
2018-07-27T16:42:37.407Z,48
2018-07-27T16:43:37.597Z,48
2018-07-27T16:44:37.311Z,48
2018-07-27T16:45:37.289Z,48
2018-07-27T16:46:37.283Z,47
2018-07-27T16:47:37.440Z,47
2018-07-27T16:49:37.480Z,48
2018-07-27T16:50:37.449Z,48
2018-07-27T16:51:38.107Z,48
2018-07-27T16:52:37.326Z,48
2018-07-27T16:53:37.445Z,48
2018-07-27T16:54:37.163Z,48
2018-07-27T16:55:37.479Z,48
2018-07-27T16:56:37.601Z,48
2018-07-27T16:57:37.770Z,46
2018-07-27T16:58:37.324Z,46
2018-07-27T17:00:37.553Z,44
2018-07-27T17:01:37.473Z,44
2018-07-27T17:02:37.060Z,44
2018-07-27T17:03:37.922Z,44
2018-07-27T17:04:37.290Z,43
2018-07-27T17:05:37.396Z,43
2018-07-27T17:06:37.626Z,43
2018-07-27T17:07:37.711Z,43
2018-07-27T17:08:37.470Z,43
2018-07-27T17:09:37.161Z,43
2018-07-27T17:10:37.824Z,43
2018-07-27T17:11:37.386Z,43
2018-07-27T17:12:38.233Z,42
2018-07-27T17:13:37.869Z,42
2018-07-27T17:14:37.535Z,43
2018-07-27T17:15:37.163Z,43
2018-07-27T17:16:37.041Z,43
2018-07-27T17:17:37.730Z,43
2018-07-27T17:18:37.721Z,43
2018-07-27T17:20:38.173Z,43
2018-07-27T17:21:37.482Z,43
2018-07-27T17:22:37.260Z,43
2018-07-27T17:23:37.545Z,43
2018-07-27T17:24:37.267Z,43
2018-07-27T17:25:37.294Z,44
2018-07-27T17:26:37.494Z,44
2018-07-27T17:27:39.111Z,44
2018-07-27T17:28:37.999Z,44
2018-07-27T17:29:37.411Z,44
2018-07-27T17:30:37.920Z,44
2018-07-27T17:31:37.672Z,44
2018-07-27T17:33:37.583Z,44
2018-07-27T17:34:37.701Z,44
2018-07-27T17:35:37.559Z,44
2018-07-27T17:36:37.645Z,44
2018-07-27T17:38:37.722Z,45
2018-07-27T17:40:37.281Z,45
2018-07-27T17:41:37.311Z,45
2018-07-27T17:42:37.701Z,46
2018-07-27T17:43:37.499Z,46
2018-07-27T17:44:37.634Z,46
2018-07-27T17:45:37.252Z,47
2018-07-27T17:46:37.802Z,47
2018-07-27T17:47:37.828Z,48
2018-07-27T17:48:37.458Z,48
2018-07-27T17:49:37.744Z,48
2018-07-27T17:50:37.687Z,48
2018-07-27T17:51:37.449Z,48
2018-07-27T17:52:37.424Z,48
2018-07-27T17:53:37.584Z,48
2018-07-27T17:54:37.768Z,48
2018-07-27T17:56:38.045Z,49
2018-07-27T17:57:38.308Z,49
2018-07-27T17:58:37.857Z,49
2018-07-27T17:59:37.503Z,49
2018-07-27T18:00:38.460Z,50
2018-07-27T18:01:37.634Z,50
2018-07-27T18:02:37.749Z,50
2018-07-27T18:03:37.906Z,50
2018-07-27T18:04:37.586Z,50
2018-07-27T18:05:37.521Z,50
2018-07-27T18:06:37.841Z,50
2018-07-27T18:07:37.940Z,50
2018-07-27T18:08:37.922Z,50
2018-07-27T18:09:37.641Z,50
2018-07-27T18:10:37.798Z,51
2018-07-27T18:11:37.287Z,51
2018-07-27T18:13:37.563Z,51
2018-07-27T18:14:37.804Z,51